sensor_id;sensor_type;location;lat;lon;timestamp;P1;P4;P2;P0;N10;N4;N25;N1;N05;TS
66018;SPS30;52787;51.084;5.816;2023-12-29T00:01:52;3.23;3.03;2.62;2.01;16.12;16.10;16.01;15.50;12.92;0.61
66018;SPS30;52787;51.084;5.816;2023-12-29T00:04:18;2.98;2.80;2.46;1.94;15.53;15.52;15.44;15.00;12.62;0.60
66018;SPS30;52787;51.084;5.816;2023-12-29T00:06:44;2.87;2.70;2.38;1.87;15.00;14.98;14.91;14.49;12.19;0.61
66018;SPS30;52787;51.084;5.816;2023-12-29T00:09:10;3.24;3.04;2.65;2.06;16.46;16.45;16.36;15.86;13.27;0.62
66018;SPS30;52787;51.084;5.816;2023-12-29T00:11:37;3.39;3.17;2.75;2.11;16.88;16.86;16.77;16.22;13.51;0.63
66018;SPS30;52787;51.084;5.816;2023-12-29T00:14:04;2.85;2.68;2.36;1.85;14.83;14.81;14.74;14.32;12.03;0.60
66018;SPS30;52787;51.084;5.816;2023-12-29T00:16:30;3.65;3.48;3.15;2.61;20.87;20.85;20.78;20.35;17.40;0.57
66018;SPS30;52787;51.084;5.816;2023-12-29T00:18:56;3.23;3.10;2.85;2.40;19.21;19.19;19.13;18.80;16.18;0.56
66018;SPS30;52787;51.084;5.816;2023-12-29T00:21:22;2.63;2.51;2.28;1.90;15.15;15.14;15.09;14.79;12.66;0.56
66018;SPS30;52787;51.084;5.816;2023-12-29T00:23:47;2.75;2.62;2.38;1.96;15.71;15.69;15.64;15.31;13.09;0.55
66018;SPS30;52787;51.084;5.816;2023-12-29T00:26:17;2.95;2.82;2.58;2.16;17.25;17.23;17.18;16.85;14.46;0.55
66018;SPS30;52787;51.084;5.816;2023-12-29T00:28:43;2.78;2.66;2.42;2.02;16.13;16.12;16.06;15.75;13.51;0.56
66018;SPS30;52787;51.084;5.816;2023-12-29T00:31:13;2.96;2.83;2.57;2.14;17.09;17.08;17.02;16.68;14.28;0.56
66018;SPS30;52787;51.084;5.816;2023-12-29T00:33:45;2.95;2.81;2.52;2.06;16.47;16.45;16.39;16.01;13.63;0.58
66018;SPS30;52787;51.084;5.816;2023-12-29T00:36:15;2.90;2.76;2.47;2.00;16.00;15.99;15.92;15.55;13.21;0.59
66018;SPS30;52787;51.084;5.816;2023-12-29T00:38:41;3.44;3.25;2.87;2.29;18.29;18.27;18.18;17.70;14.94;0.61
66018;SPS30;52787;51.084;5.816;2023-12-29T00:41:07;3.04;2.86;2.52;2.00;15.96;15.95;15.87;15.43;13.00;0.61
66018;SPS30;52787;51.084;5.816;2023-12-29T00:43:34;3.02;2.84;2.48;1.94;15.51;15.49;15.41;14.95;12.54;0.62
66018;SPS30;52787;51.084;5.816;2023-12-29T00:46:07;3.46;3.23;2.79;2.13;17.05;17.03;16.93;16.36;13.60;0.63
66018;SPS30;52787;51.084;5.816;2023-12-29T00:48:34;3.38;3.17;2.76;2.14;17.12;17.10;17.01;16.48;13.79;0.61
66018;SPS30;52787;51.084;5.816;2023-12-29T00:51:03;3.22;3.02;2.65;2.08;16.60;16.59;16.50;16.02;13.45;0.61
66018;SPS30;52787;51.084;5.816;2023-12-29T00:53:29;3.43;3.23;2.84;2.25;17.96;17.94;17.85;17.36;14.61;0.60
66018;SPS30;52787;51.084;5.816;2023-12-29T00:55:57;3.42;3.22;2.84;2.25;18.03;18.02;17.93;17.44;14.70;0.60
66018;SPS30;52787;51.084;5.816;2023-12-29T00:58:24;3.70;3.49;3.09;2.46;19.68;19.66;19.57;19.05;16.08;0.60
66018;SPS30;52787;51.084;5.816;2023-12-29T01:00:50;2.98;2.80;2.46;1.92;15.40;15.38;15.30;14.85;12.47;0.62
66018;SPS30;52787;51.084;5.816;2023-12-29T01:03:16;3.18;3.00;2.65;2.11;16.88;16.86;16.78;16.33;13.78;0.61
66018;SPS30;52787;51.084;5.816;2023-12-29T01:05:41;3.52;3.32;2.93;2.33;18.61;18.59;18.50;18.00;15.18;0.61
66018;SPS30;52787;51.084;5.816;2023-12-29T01:08:07;3.49;3.30;2.91;2.31;18.49;18.47;18.39;17.89;15.09;0.60
66018;SPS30;52787;51.084;5.816;2023-12-29T01:10:33;3.07;2.90;2.57;2.05;16.36;16.34;16.27;15.84;13.37;0.59
66018;SPS30;52787;51.084;5.816;2023-12-29T01:12:59;3.32;3.14;2.77;2.21;17.69;17.67;17.59;17.12;14.46;0.59
66018;SPS30;52787;51.084;5.816;2023-12-29T01:15:24;2.82;2.65;2.31;1.81;14.46;14.44;14.36;13.94;11.68;0.60
66018;SPS30;52787;51.084;5.816;2023-12-29T01:17:50;2.91;2.74;2.41;1.91;15.27;15.25;15.18;14.76;12.43;0.58
66018;SPS30;52787;51.084;5.816;2023-12-29T01:20:16;3.74;3.51;3.06;2.38;19.06;19.04;18.94;18.37;15.38;0.58
66018;SPS30;52787;51.084;5.816;2023-12-29T01:22:41;4.00;3.73;3.21;2.44;19.56;19.53;19.41;18.75;15.57;0.60
66018;SPS30;52787;51.084;5.816;2023-12-29T01:25:07;3.53;3.29;2.81;2.12;16.95;16.93;16.82;16.22;13.41;0.61
66018;SPS30;52787;51.084;5.816;2023-12-29T01:27:33;3.42;3.20;2.78;2.15;17.20;17.18;17.09;16.55;13.82;0.59
66018;SPS30;52787;51.084;5.816;2023-12-29T01:29:59;3.58;3.37;2.95;2.31;18.47;18.45;18.35;17.82;14.95;0.59
66018;SPS30;52787;51.084;5.816;2023-12-29T01:32:25;3.58;3.35;2.91;2.24;17.94;17.92;17.82;17.25;14.39;0.61
66018;SPS30;52787;51.084;5.816;2023-12-29T01:34:52;3.78;3.53;3.06;2.35;18.81;18.79;18.68;18.07;15.06;0.61
66018;SPS30;52787;51.084;5.816;2023-12-29T01:37:18;3.61;3.38;2.94;2.27;18.18;18.16;18.06;17.50;14.62;0.62
66018;SPS30;52787;51.084;5.816;2023-12-29T01:39:44;3.38;3.16;2.75;2.12;16.96;16.94;16.84;16.31;13.61;0.63
66018;SPS30;52787;51.084;5.816;2023-12-29T01:42:10;3.74;3.51;3.05;2.36;18.91;18.89;18.78;18.20;15.22;0.62
66018;SPS30;52787;51.084;5.816;2023-12-29T01:44:38;3.90;3.65;3.15;2.41;19.29;19.26;19.15;18.52;15.41;0.62
66018;SPS30;52787;51.084;5.816;2023-12-29T01:47:11;3.75;3.49;2.99;2.25;18.02;18.00;17.88;17.25;14.27;0.62
66018;SPS30;52787;51.084;5.816;2023-12-29T01:49:41;3.63;3.39;2.91;2.20;17.63;17.61;17.50;16.89;14.00;0.62
66018;SPS30;52787;51.084;5.816;2023-12-29T01:52:10;3.71;3.47;3.00;2.31;18.48;18.46;18.35;17.75;14.80;0.60
66018;SPS30;52787;51.084;5.816;2023-12-29T01:54:38;3.97;3.69;3.16;2.37;19.01;18.99;18.86;18.18;15.03;0.61
66018;SPS30;52787;51.084;5.816;2023-12-29T01:57:07;3.68;3.43;2.92;2.19;17.51;17.49;17.37;16.74;13.81;0.63
66018;SPS30;52787;51.084;5.816;2023-12-29T01:59:33;3.68;3.42;2.91;2.18;17.45;17.42;17.31;16.67;13.75;0.64
66018;SPS30;52787;51.084;5.816;2023-12-29T02:02:01;3.78;3.49;2.94;2.15;17.19;17.16;17.04;16.34;13.35;0.66
66018;SPS30;52787;51.084;5.816;2023-12-29T02:04:27;4.20;3.88;3.24;2.34;18.71;18.68;18.54;17.74;14.42;0.66
66018;SPS30;52787;51.084;5.816;2023-12-29T02:06:54;4.28;3.96;3.33;2.43;19.49;19.46;19.32;18.53;15.15;0.65
66018;SPS30;52787;51.084;5.816;2023-12-29T02:09:20;3.81;3.54;3.01;2.24;17.95;17.93;17.81;17.14;14.12;0.63
66018;SPS30;52787;51.084;5.816;2023-12-29T02:11:47;3.51;3.27;2.81;2.13;17.03;17.01;16.91;16.32;13.53;0.61
66018;SPS30;52787;51.084;5.816;2023-12-29T02:14:14;3.70;3.46;2.99;2.30;18.41;18.38;18.28;17.68;14.74;0.59
66018;SPS30;52787;51.084;5.816;2023-12-29T02:19:50;3.17;2.97;2.57;1.98;15.81;15.80;15.70;15.20;12.66;0.63
66018;SPS30;52787;51.084;5.816;2023-12-29T02:22:15;3.41;3.19;2.75;2.09;16.75;16.73;16.63;16.07;13.35;0.64
66018;SPS30;52787;51.084;5.816;2023-12-29T02:24:47;3.46;3.22;2.75;2.07;16.54;16.52;16.42;15.82;13.08;0.65
66018;SPS30;52787;51.084;5.816;2023-12-29T02:27:23;3.60;3.33;2.81;2.07;16.56;16.54;16.42;15.76;12.92;0.66
66018;SPS30;52787;51.084;5.816;2023-12-29T02:30:15;4.18;3.86;3.25;2.38;19.08;19.05;18.91;18.14;14.84;0.66
66018;SPS30;52787;51.084;5.816;2023-12-29T02:32:52;3.99;3.66;3.03;2.13;17.10;17.07;16.93;16.13;12.99;0.68
66018;SPS30;52787;51.084;5.816;2023-12-29T02:35:27;3.42;3.14;2.59;1.82;14.59;14.57;14.44;13.75;11.06;0.68
66018;SPS30;52787;51.084;5.816;2023-12-29T02:37:57;4.10;3.77;3.11;2.19;17.55;17.52;17.38;16.55;13.32;0.66
66018;SPS30;52787;51.084;5.816;2023-12-29T02:40:25;3.69;3.39;2.81;1.99;15.96;15.94;15.81;15.08;12.17;0.66
66018;SPS30;52787;51.084;5.816;2023-12-29T02:42:51;3.56;3.28;2.74;1.98;15.86;15.83;15.71;15.03;12.23;0.66
66018;SPS30;52787;51.084;5.816;2023-12-29T02:45:16;3.70;3.43;2.89;2.13;17.03;17.00;16.88;16.21;13.28;0.65
66018;SPS30;52787;51.084;5.816;2023-12-29T02:47:43;3.15;2.94;2.53;1.92;15.33;15.31;15.22;14.69;12.18;0.62
66018;SPS30;52787;51.084;5.816;2023-12-29T02:50:10;3.21;2.98;2.53;1.87;14.99;14.97;14.86;14.29;11.74;0.64
66018;SPS30;52787;51.084;5.816;2023-12-29T02:52:37;3.44;3.18;2.69;1.98;15.87;15.84;15.73;15.11;12.39;0.64
66018;SPS30;52787;51.084;5.816;2023-12-29T02:55:02;3.42;3.16;2.64;1.91;15.30;15.28;15.16;14.51;11.81;0.66
66018;SPS30;52787;51.084;5.816;2023-12-29T02:57:30;3.19;2.95;2.48;1.81;14.46;14.44;14.33;13.74;11.21;0.66
66018;SPS30;52787;51.084;5.816;2023-12-29T02:59:56;3.75;3.47;2.91;2.12;16.94;16.91;16.79;16.08;13.12;0.66
66018;SPS30;52787;51.084;5.816;2023-12-29T03:02:22;3.18;2.93;2.45;1.76;14.11;14.09;13.98;13.36;10.85;0.67
66018;SPS30;52787;51.084;5.816;2023-12-29T03:04:48;3.40;3.16;2.70;2.02;16.15;16.13;16.02;15.43;12.73;0.63
66018;SPS30;52787;51.084;5.816;2023-12-29T03:07:14;3.20;2.97;2.52;1.87;14.95;14.93;14.82;14.25;11.72;0.65
66018;SPS30;52787;51.084;5.816;2023-12-29T03:09:40;3.50;3.24;2.73;1.99;15.97;15.94;15.83;15.18;12.41;0.66
66018;SPS30;52787;51.084;5.816;2023-12-29T03:12:05;3.01;2.79;2.36;1.75;13.99;13.97;13.87;13.33;10.94;0.66
66018;SPS30;52787;51.084;5.816;2023-12-29T03:14:31;3.14;2.90;2.43;1.76;14.10;14.08;13.97;13.38;10.90;0.67
66018;SPS30;52787;51.084;5.816;2023-12-29T03:16:58;3.26;3.00;2.50;1.78;14.29;14.27;14.15;13.52;10.95;0.67
66018;SPS30;52787;51.084;5.816;2023-12-29T03:19:24;3.64;3.35;2.79;2.00;15.99;15.97;15.84;15.14;12.27;0.67
66018;SPS30;52787;51.084;5.816;2023-12-29T03:21:50;3.86;3.55;2.96;2.12;16.95;16.92;16.79;16.04;13.00;0.68
66018;SPS30;52787;51.084;5.816;2023-12-29T03:24:16;3.86;3.56;2.98;2.15;17.22;17.19;17.06;16.33;13.28;0.66
66018;SPS30;52787;51.084;5.816;2023-12-29T03:26:42;4.04;3.74;3.15;2.30;18.43;18.40;18.27;17.52;14.32;0.66
66018;SPS30;52787;51.084;5.816;2023-12-29T03:29:08;3.35;3.09;2.58;1.86;14.91;14.88;14.77;14.13;11.49;0.67
66018;SPS30;52787;51.084;5.816;2023-12-29T03:31:34;3.85;3.55;2.96;2.13;17.03;17.00;16.87;16.13;13.09;0.66
66018;SPS30;52787;51.084;5.816;2023-12-29T03:33:59;3.08;2.84;2.38;1.73;13.84;13.82;13.72;13.13;10.70;0.66
66018;SPS30;52787;51.084;5.816;2023-12-29T03:36:25;2.55;2.35;1.95;1.39;11.14;11.13;11.04;10.54;8.53;0.68
66018;SPS30;52787;51.084;5.816;2023-12-29T03:38:51;3.51;3.23;2.68;1.91;15.27;15.25;15.12;14.43;11.66;0.68
66018;SPS30;52787;51.084;5.816;2023-12-29T03:41:16;3.07;2.84;2.38;1.73;13.85;13.83;13.72;13.15;10.72;0.66
66018;SPS30;52787;51.084;5.816;2023-12-29T03:43:44;3.26;2.99;2.47;1.75;14.00;13.98;13.86;13.21;10.64;0.67
66018;SPS30;52787;51.084;5.816;2023-12-29T03:46:18;3.01;2.76;2.27;1.59;12.71;12.69;12.58;11.96;9.59;0.68
66018;SPS30;52787;51.084;5.816;2023-12-29T03:48:46;3.58;3.29;2.71;1.91;15.29;15.26;15.13;14.41;11.59;0.67
66018;SPS30;52787;51.084;5.816;2023-12-29T03:51:14;3.46;3.19;2.66;1.91;15.27;15.25;15.13;14.46;11.73;0.66
66018;SPS30;52787;51.084;5.816;2023-12-29T03:53:41;3.63;3.35;2.79;2.00;16.04;16.02;15.89;15.19;12.32;0.65
66018;SPS30;52787;51.084;5.816;2023-12-29T03:56:13;3.23;2.97;2.47;1.77;14.19;14.17;14.05;13.43;10.88;0.66
66018;SPS30;52787;51.084;5.816;2023-12-29T03:58:41;3.12;2.86;2.37;1.68;13.44;13.42;13.31;12.68;10.23;0.67
66018;SPS30;52787;51.084;5.816;2023-12-29T04:01:12;3.33;3.06;2.54;1.81;14.47;14.45;14.33;13.67;11.05;0.66
66018;SPS30;52787;51.084;5.816;2023-12-29T04:03:39;3.27;3.01;2.50;1.78;14.24;14.22;14.10;13.46;10.88;0.68
66018;SPS30;52787;51.084;5.816;2023-12-29T04:06:06;3.91;3.59;2.96;2.08;16.64;16.61;16.47;15.67;12.60;0.69
66018;SPS30;52787;51.084;5.816;2023-12-29T04:08:33;3.63;3.33;2.74;1.92;15.39;15.37;15.23;14.49;11.64;0.68
66018;SPS30;52787;51.084;5.816;2023-12-29T04:10:59;2.99;2.75;2.29;1.63;13.09;13.07;12.97;12.38;10.03;0.67
66018;SPS30;52787;51.084;5.816;2023-12-29T04:13:26;3.66;3.36;2.78;1.96;15.74;15.71;15.58;14.85;11.97;0.68
66018;SPS30;52787;51.084;5.816;2023-12-29T04:15:52;3.95;3.60;2.93;2.00;16.06;16.03;15.88;15.04;11.94;0.70
66018;SPS30;52787;51.084;5.816;2023-12-29T04:18:20;4.06;3.69;2.97;1.98;15.88;15.85;15.69;14.78;11.61;0.72
66018;SPS30;52787;51.084;5.816;2023-12-29T04:20:47;3.65;3.33;2.71;1.85;14.86;14.83;14.69;13.92;11.06;0.70
66018;SPS30;52787;51.084;5.816;2023-12-29T04:23:13;4.01;3.67;3.00;2.08;16.68;16.65;16.50;15.66;12.52;0.70
66018;SPS30;52787;51.084;5.816;2023-12-29T04:25:38;4.08;3.72;3.03;2.07;16.59;16.56;16.41;15.54;12.34;0.70
66018;SPS30;52787;51.084;5.816;2023-12-29T04:28:05;3.34;3.05;2.49;1.71;13.73;13.71;13.58;12.88;10.26;0.70
66018;SPS30;52787;51.084;5.816;2023-12-29T04:30:32;3.34;3.06;2.53;1.78;14.29;14.27;14.15;13.48;10.86;0.68
66018;SPS30;52787;51.084;5.816;2023-12-29T04:32:59;4.08;3.76;3.13;2.25;18.01;17.99;17.84;17.06;13.84;0.67
66018;SPS30;52787;51.084;5.816;2023-12-29T04:35:25;3.55;3.25;2.66;1.84;14.72;14.69;14.56;13.82;11.03;0.69
66018;SPS30;52787;51.084;5.816;2023-12-29T04:37:51;3.41;3.11;2.53;1.73;13.87;13.85;13.72;12.99;10.32;0.69
66018;SPS30;52787;51.084;5.816;2023-12-29T04:40:17;3.88;3.54;2.87;1.96;15.69;15.66;15.51;14.68;11.64;0.70
66018;SPS30;52787;51.084;5.816;2023-12-29T04:42:43;3.57;3.26;2.66;1.83;14.68;14.65;14.52;13.77;10.97;0.69
66018;SPS30;52787;51.084;5.816;2023-12-29T04:45:09;4.25;3.89;3.17;2.18;17.50;17.47;17.31;16.42;13.08;0.70
66018;SPS30;52787;51.084;5.816;2023-12-29T04:47:36;3.22;2.94;2.37;1.60;12.83;12.81;12.68;11.98;9.46;0.70
66018;SPS30;52787;51.084;5.816;2023-12-29T04:50:03;3.50;3.19;2.59;1.77;14.17;14.14;14.01;13.26;10.52;0.68
66018;SPS30;52787;51.084;5.816;2023-12-29T04:52:31;3.94;3.59;2.91;1.98;15.85;15.82;15.67;14.82;11.73;0.68
66018;SPS30;52787;51.084;5.816;2023-12-29T04:54:57;3.49;3.16;2.52;1.66;13.29;13.26;13.12;12.32;9.60;0.71
66018;SPS30;52787;51.084;5.816;2023-12-29T04:57:22;4.65;4.20;3.32;2.13;17.07;17.04;16.84;15.74;12.12;0.73
66018;SPS30;52787;51.084;5.816;2023-12-29T04:59:48;3.76;3.39;2.68;1.73;13.86;13.83;13.67;12.78;9.86;0.72
66018;SPS30;52787;51.084;5.816;2023-12-29T05:02:14;4.31;3.90;3.11;2.03;16.31;16.28;16.10;15.11;11.75;0.72
66018;SPS30;52787;51.084;5.816;2023-12-29T05:04:40;4.51;4.10;3.29;2.19;17.58;17.55;17.37;16.36;12.84;0.73
66018;SPS30;52787;51.084;5.816;2023-12-29T05:07:07;4.72;4.29;3.43;2.27;18.22;18.18;17.99;16.92;13.24;0.71
66018;SPS30;52787;51.084;5.816;2023-12-29T05:09:34;3.44;3.13;2.51;1.67;13.38;13.35;13.22;12.44;9.76;0.71
66018;SPS30;52787;51.084;5.816;2023-12-29T05:12:00;3.97;3.60;2.88;1.90;15.20;15.17;15.01;14.10;11.00;0.70
66018;SPS30;52787;51.084;5.816;2023-12-29T05:14:27;4.34;3.95;3.19;2.15;17.26;17.23;17.06;16.11;12.71;0.68
66018;SPS30;52787;51.084;5.816;2023-12-29T05:16:52;3.66;3.35;2.72;1.87;14.97;14.94;14.80;14.02;11.15;0.67
66018;SPS30;52787;51.084;5.816;2023-12-29T05:19:19;4.07;3.69;2.96;1.97;15.76;15.73;15.56;14.65;11.47;0.70
66018;SPS30;52787;51.084;5.816;2023-12-29T05:21:44;3.54;3.20;2.54;1.65;13.23;13.20;13.06;12.23;9.47;0.73
66018;SPS30;52787;51.084;5.816;2023-12-29T05:24:11;4.03;3.63;2.86;1.81;14.53;14.50;14.33;13.36;10.22;0.75
66018;SPS30;52787;51.084;5.816;2023-12-29T05:26:37;3.77;3.38;2.61;1.60;12.85;12.82;12.65;11.70;8.79;0.77
66018;SPS30;52787;51.084;5.816;2023-12-29T05:29:02;4.29;3.83;2.95;1.78;14.31;14.28;14.08;12.98;9.67;0.77
66018;SPS30;52787;51.084;5.816;2023-12-29T05:31:28;4.25;3.81;2.94;1.79;14.36;14.33;14.13;13.05;9.76;0.77
66018;SPS30;52787;51.084;5.816;2023-12-29T05:33:55;4.32;3.88;3.02;1.88;15.10;15.07;14.88;13.81;10.46;0.75
66018;SPS30;52787;51.084;5.816;2023-12-29T05:36:22;3.72;3.36;2.64;1.68;13.46;13.43;13.27;12.38;9.49;0.73
66018;SPS30;52787;51.084;5.816;2023-12-29T05:38:48;3.67;3.31;2.61;1.67;13.40;13.37;13.22;12.34;9.49;0.72
66018;SPS30;52787;51.084;5.816;2023-12-29T05:41:13;4.21;3.79;2.97;1.88;15.06;15.03;14.84;13.82;10.56;0.74
66018;SPS30;52787;51.084;5.816;2023-12-29T05:43:39;3.89;3.50;2.73;1.71;13.72;13.69;13.52;12.57;9.55;0.75
66018;SPS30;52787;51.084;5.816;2023-12-29T05:46:11;4.58;4.12;3.23;2.03;16.26;16.23;16.03;14.91;11.35;0.75
66018;SPS30;52787;51.084;5.816;2023-12-29T05:48:38;3.78;3.41;2.70;1.74;13.96;13.93;13.77;12.89;9.95;0.72
66018;SPS30;52787;51.084;5.816;2023-12-29T05:51:11;3.65;3.31;2.64;1.74;13.97;13.94;13.79;12.96;10.11;0.70
66018;SPS30;52787;51.084;5.816;2023-12-29T05:53:42;3.65;3.31;2.65;1.76;14.12;14.09;13.94;13.12;10.27;0.71
66018;SPS30;52787;51.084;5.816;2023-12-29T05:56:12;3.88;3.50;2.76;1.77;14.20;14.17;14.00;13.08;10.06;0.74
66018;SPS30;52787;51.084;5.816;2023-12-29T05:58:41;3.85;3.46;2.71;1.70;13.66;13.63;13.46;12.52;9.54;0.76
66018;SPS30;52787;51.084;5.816;2023-12-29T06:01:08;3.86;3.47;2.70;1.68;13.52;13.49;13.32;12.36;9.37;0.76
66018;SPS30;52787;51.084;5.816;2023-12-29T06:03:34;4.39;3.92;3.01;1.80;14.47;14.43;14.23;13.10;9.71;0.79
66018;SPS30;52787;51.084;5.816;2023-12-29T06:06:00;4.31;3.84;2.92;1.71;13.75;13.71;13.50;12.36;9.04;0.81
66018;SPS30;52787;51.084;5.816;2023-12-29T06:08:26;3.65;3.26;2.50;1.51;12.09;12.06;11.89;10.95;8.13;0.79
66018;SPS30;52787;51.084;5.816;2023-12-29T06:10:52;3.55;3.19;2.49;1.55;12.46;12.43;12.27;11.40;8.65;0.77
66018;SPS30;52787;51.084;5.816;2023-12-29T06:13:18;4.39;3.94;3.06;1.89;15.20;15.17;14.97;13.88;10.48;0.78
66018;SPS30;52787;51.084;5.816;2023-12-29T06:15:44;4.33;3.87;2.98;1.81;14.51;14.47;14.27;13.17;9.82;0.79
66018;SPS30;52787;51.084;5.816;2023-12-29T06:18:09;3.75;3.35;2.58;1.56;12.50;12.47;12.30;11.33;8.44;0.79
66018;SPS30;52787;51.084;5.816;2023-12-29T06:20:35;3.88;3.48;2.70;1.67;13.38;13.35;13.17;12.20;9.20;0.78
66018;SPS30;52787;51.084;5.816;2023-12-29T06:23:01;4.09;3.67;2.85;1.75;14.07;14.03;13.85;12.82;9.66;0.78
66018;SPS30;52787;51.084;5.816;2023-12-29T06:25:27;4.12;3.69;2.83;1.70;13.66;13.63;13.44;12.38;9.19;0.78
66018;SPS30;52787;51.084;5.816;2023-12-29T06:27:53;3.25;2.92;2.26;1.39;11.17;11.14;11.00;10.18;7.67;0.77
66018;SPS30;52787;51.084;5.816;2023-12-29T06:30:19;3.31;2.98;2.33;1.47;11.76;11.73;11.58;10.78;8.21;0.75
66018;SPS30;52787;51.084;5.816;2023-12-29T06:32:45;3.89;3.49;2.73;1.70;13.66;13.63;13.46;12.50;9.49;0.77
66018;SPS30;52787;51.084;5.816;2023-12-29T06:35:11;3.91;3.51;2.74;1.71;13.75;13.72;13.55;12.59;9.56;0.77
66018;SPS30;52787;51.084;5.816;2023-12-29T06:37:38;4.17;3.75;2.94;1.85;14.87;14.84;14.66;13.64;10.41;0.76
66018;SPS30;52787;51.084;5.816;2023-12-29T06:40:06;3.94;3.54;2.77;1.74;13.99;13.95;13.78;12.82;9.77;0.76
66018;SPS30;52787;51.084;5.816;2023-12-29T06:42:33;4.09;3.67;2.85;1.77;14.20;14.17;13.98;12.97;9.80;0.76
66018;SPS30;52787;51.084;5.816;2023-12-29T06:44:59;3.97;3.56;2.76;1.69;13.56;13.53;13.35;12.35;9.27;0.77
66018;SPS30;52787;51.084;5.816;2023-12-29T06:47:24;4.88;4.39;3.43;2.14;17.20;17.16;16.95;15.75;11.96;0.76
66018;SPS30;52787;51.084;5.816;2023-12-29T06:49:50;4.33;3.89;3.05;1.91;15.35;15.31;15.13;14.07;10.71;0.75
66018;SPS30;52787;51.084;5.816;2023-12-29T06:52:16;4.52;4.08;3.21;2.05;16.42;16.38;16.19;15.11;11.59;0.75
66018;SPS30;52787;51.084;5.816;2023-12-29T06:54:42;5.11;4.61;3.62;2.30;18.49;18.45;18.23;17.00;13.03;0.75
66018;SPS30;52787;51.084;5.816;2023-12-29T06:57:08;4.32;3.88;3.02;1.87;15.00;14.96;14.77;13.69;10.34;0.78
66018;SPS30;52787;51.084;5.816;2023-12-29T06:59:34;4.47;3.99;3.07;1.84;14.78;14.74;14.53;13.38;9.93;0.78
66018;SPS30;52787;51.084;5.816;2023-12-29T07:02:00;4.27;3.85;3.02;1.91;15.35;15.32;15.13;14.10;10.79;0.73
66018;SPS30;52787;51.084;5.816;2023-12-29T07:04:26;4.58;4.12;3.23;2.04;16.36;16.32;16.13;15.02;11.46;0.74
66018;SPS30;52787;51.084;5.816;2023-12-29T07:06:51;4.34;3.91;3.08;1.97;15.79;15.75;15.57;14.53;11.16;0.73
66018;SPS30;52787;51.084;5.816;2023-12-29T07:09:18;4.21;3.78;2.94;1.81;14.55;14.51;14.33;13.28;10.01;0.75
66018;SPS30;52787;51.084;5.816;2023-12-29T07:11:47;4.13;3.70;2.87;1.77;14.18;14.15;13.96;12.93;9.74;0.75
66018;SPS30;52787;51.084;5.816;2023-12-29T07:14:15;4.63;4.16;3.24;2.02;16.22;16.18;15.98;14.84;11.25;0.76
66018;SPS30;52787;51.084;5.816;2023-12-29T07:16:42;4.63;4.16;3.23;2.00;16.05;16.01;15.80;14.65;11.06;0.75
66018;SPS30;52787;51.084;5.816;2023-12-29T07:19:09;4.75;4.28;3.36;2.12;17.01;16.97;16.76;15.61;11.92;0.74
66018;SPS30;52787;51.084;5.816;2023-12-29T07:21:34;4.39;3.96;3.13;2.01;16.10;16.06;15.88;14.84;11.43;0.73
66018;SPS30;52787;51.084;5.816;2023-12-29T07:24:00;3.82;3.45;2.73;1.77;14.18;14.15;13.99;13.09;10.12;0.72
66018;SPS30;52787;51.084;5.816;2023-12-29T07:26:26;3.98;3.60;2.87;1.87;14.98;14.95;14.79;13.87;10.77;0.72
66018;SPS30;52787;51.084;5.816;2023-12-29T07:28:52;4.20;3.81;3.04;2.00;16.07;16.04;15.87;14.92;11.64;0.71
66018;SPS30;52787;51.084;5.816;2023-12-29T07:31:22;3.56;3.23;2.58;1.69;13.58;13.55;13.40;12.59;9.81;0.71
66018;SPS30;52787;51.084;5.816;2023-12-29T07:33:49;4.12;3.76;3.05;2.07;16.62;16.58;16.43;15.54;12.31;0.69
66018;SPS30;52787;51.084;5.816;2023-12-29T07:36:15;3.35;3.06;2.50;1.72;13.79;13.76;13.63;12.93;10.30;0.68
66018;SPS30;52787;51.084;5.816;2023-12-29T07:38:40;3.44;3.14;2.55;1.74;13.93;13.91;13.77;13.03;10.34;0.68
66018;SPS30;52787;51.084;5.816;2023-12-29T07:41:07;4.25;3.88;3.15;2.15;17.19;17.16;17.00;16.08;12.75;0.68
66018;SPS30;52787;51.084;5.816;2023-12-29T07:43:34;4.14;3.76;3.01;1.99;15.98;15.95;15.78;14.85;11.62;0.70
66018;SPS30;52787;51.084;5.816;2023-12-29T07:46:03;3.93;3.57;2.87;1.91;15.34;15.31;15.15;14.27;11.20;0.70
66018;SPS30;52787;51.084;5.816;2023-12-29T07:48:29;4.03;3.65;2.90;1.89;15.18;15.15;14.99;14.05;10.91;0.72
66018;SPS30;52787;51.084;5.816;2023-12-29T07:50:55;3.13;2.84;2.26;1.49;11.96;11.93;11.80;11.09;8.65;0.71
66018;SPS30;52787;51.084;5.816;2023-12-29T07:53:30;3.45;3.14;2.54;1.72;13.75;13.72;13.59;12.84;10.14;0.69
66018;SPS30;52787;51.084;5.816;2023-12-29T07:55:55;3.37;3.07;2.49;1.69;13.56;13.54;13.41;12.68;10.04;0.69
66018;SPS30;52787;51.084;5.816;2023-12-29T07:58:21;3.23;2.95;2.41;1.65;13.25;13.23;13.10;12.42;9.89;0.68
66018;SPS30;52787;51.084;5.816;2023-12-29T08:00:47;2.90;2.65;2.16;1.48;11.89;11.87;11.76;11.15;8.87;0.69
66018;SPS30;52787;51.084;5.816;2023-12-29T08:03:12;3.14;2.86;2.31;1.57;12.56;12.54;12.42;11.74;9.28;0.70
66018;SPS30;52787;51.084;5.816;2023-12-29T08:05:38;3.21;2.93;2.36;1.59;12.73;12.71;12.58;11.87;9.36;0.70
66018;SPS30;52787;51.084;5.816;2023-12-29T08:08:05;3.17;2.89;2.35;1.61;12.93;12.91;12.79;12.11;9.63;0.68
66018;SPS30;52787;51.084;5.816;2023-12-29T08:10:31;2.63;2.40;1.96;1.35;10.85;10.83;10.73;10.18;8.12;0.67
66018;SPS30;52787;51.084;5.816;2023-12-29T08:12:59;2.56;2.34;1.90;1.30;10.46;10.44;10.34;9.79;7.79;0.68
66018;SPS30;52787;51.084;5.816;2023-12-29T08:15:25;2.81;2.55;2.05;1.37;10.95;10.92;10.81;10.18;7.99;0.71
66018;SPS30;52787;51.084;5.816;2023-12-29T08:17:50;2.55;2.31;1.85;1.21;9.72;9.70;9.60;9.02;7.03;0.71
66018;SPS30;52787;51.084;5.816;2023-12-29T08:20:16;2.69;2.44;1.94;1.27;10.22;10.20;10.09;9.47;7.37;0.71
66018;SPS30;52787;51.084;5.816;2023-12-29T08:22:42;2.19;1.99;1.60;1.06;8.53;8.52;8.43;7.94;6.23;0.70
66018;SPS30;52787;51.084;5.816;2023-12-29T08:25:08;2.15;1.97;1.61;1.11;8.93;8.91;8.83;8.38;6.70;0.68
66018;SPS30;52787;51.084;5.816;2023-12-29T08:27:33;1.92;1.76;1.45;1.02;8.17;8.15;8.08;7.70;6.19;0.68
66018;SPS30;52787;51.084;5.816;2023-12-29T08:30:00;2.23;2.06;1.72;1.25;9.98;9.97;9.89;9.46;7.70;0.66
66018;SPS30;52787;51.084;5.816;2023-12-29T08:32:27;2.21;2.05;1.72;1.25;9.98;9.96;9.89;9.47;7.72;0.66
66018;SPS30;52787;51.084;5.816;2023-12-29T08:34:52;2.02;1.87;1.58;1.15;9.23;9.22;9.15;8.78;7.18;0.65
66018;SPS30;52787;51.084;5.816;2023-12-29T08:37:18;1.80;1.67;1.40;1.02;8.20;8.19;8.13;7.79;6.37;0.65
66018;SPS30;52787;51.084;5.816;2023-12-29T08:39:45;1.51;1.40;1.19;0.89;7.13;7.12;7.07;6.80;5.61;0.63
66018;SPS30;52787;51.084;5.816;2023-12-29T08:42:12;1.25;1.17;1.00;0.76;6.09;6.09;6.05;5.84;4.85;0.61
66018;SPS30;52787;51.084;5.816;2023-12-29T08:44:39;1.63;1.52;1.32;1.01;8.06;8.06;8.01;7.74;6.45;0.60
66018;SPS30;52787;51.084;5.816;2023-12-29T08:47:05;1.66;1.55;1.34;1.03;8.22;8.21;8.16;7.89;6.57;0.60
66018;SPS30;52787;51.084;5.816;2023-12-29T08:49:36;1.46;1.38;1.20;0.94;7.54;7.53;7.49;7.27;6.10;0.58
66018;SPS30;52787;51.084;5.816;2023-12-29T08:52:03;1.54;1.46;1.30;1.04;8.33;8.32;8.29;8.08;6.84;0.57
66018;SPS30;52787;51.084;5.816;2023-12-29T08:54:29;1.65;1.56;1.40;1.13;9.03;9.02;8.98;8.77;7.44;0.57
66018;SPS30;52787;51.084;5.816;2023-12-29T08:56:55;2.06;1.96;1.74;1.41;11.27;11.26;11.21;10.93;9.27;0.58
66018;SPS30;52787;51.084;5.816;2023-12-29T08:59:21;1.55;1.48;1.33;1.09;8.74;8.73;8.70;8.51;7.25;0.57
66018;SPS30;52787;51.084;5.816;2023-12-29T09:01:46;1.88;1.80;1.63;1.36;10.86;10.86;10.82;10.60;9.08;0.55
66018;SPS30;52787;51.084;5.816;2023-12-29T09:04:12;1.94;1.85;1.68;1.38;11.05;11.04;11.00;10.76;9.19;0.55
66018;SPS30;52787;51.084;5.816;2023-12-29T09:06:38;2.49;2.38;2.17;1.81;14.50;14.49;14.44;14.16;12.15;0.53
66018;SPS30;52787;51.084;5.816;2023-12-29T09:09:04;2.35;2.24;2.04;1.70;13.59;13.58;13.53;13.26;11.36;0.53
66018;SPS30;52787;51.084;5.816;2023-12-29T09:11:30;2.67;2.54;2.28;1.86;14.90;14.89;14.83;14.49;12.34;0.54
66018;SPS30;52787;51.084;5.816;2023-12-29T09:13:56;2.94;2.79;2.49;2.02;16.16;16.14;16.07;15.69;13.32;0.55
66018;SPS30;52787;51.084;5.816;2023-12-29T09:16:21;3.12;2.96;2.63;2.12;16.95;16.93;16.86;16.44;13.93;0.57